Acazulco, Mexico

12:24 AM CDT on October 20, 2017 (GMT -0500)
Foresta Dreams Lagoons | | Change Station

Elev 8474 ft 19.24 °N, 99.56 °W | Updated 1 second ago

Mostly Cloudy
Mostly Cloudy
54.0 °F
Feels Like 54.0 °F
N
0.0
Wind Variable Wind from SSW
Gusts 0.0 mph

Today
High -- | Low -- °F
--% Chance of Precip.
Yesterday
High -- | Low -- °F
Precip. -- in
Pressure 30.44 in
Visibility 4.0 miles
Clouds Scattered Clouds 1500 ft
Mostly Cloudy 7000 ft
Mostly Cloudy 20000 ft
Dew Point 50 °F
Humidity 87%
Rainfall 0.00 in
Snow Depth Not available.
7:33 AM 7:10 PM
New Moon, 0% visible
METAR MMTO 200452Z 14005KT 4SM SCT015 BKN070 BKN200 11/10 A3044 RMK 8/532 HZY
Pressure 30.44 in
Visibility 4.0 miles
Clouds Scattered Clouds 1500 ft
Mostly Cloudy 7000 ft
Mostly Cloudy 20000 ft
Dew Point 50 °F
Humidity 87%
Rainfall 0.00 in
Snow Depth Not available.
7:33 AM 7:10 PM
New Moon, 0% visible
METAR MMTO 200452Z 14005KT 4SM SCT015 BKN070 BKN200 11/10 A3044 RMK 8/532 HZY

Get Severe Weather Alerts

Thanks for signing up!

Be on the lookout for a verification email in your inbox.

You'll start receiving the daily forecast at 6 AM.

×

10-Day Weather Forecast

No radar image for this location.
×

Almanac

Astronomy

Oct. 20, 2017 Rise Set
Actual Time
Civil Twilight
Nautical Twilight
Astronomical Twilight
Moon
Length of Visible Light
Length of Day
Tomorrow will be .
, % of the Moon is Illuminated

Today's Extremes

Country Highs Country Lows

Community

WunderPhotos

Category 6

Welcome to Category 6. This is the collective home for Weather Underground's featured writeups by Dr. Jeff Masters (right), Bob Henson (left), Chris Burt, and other regular contributors.

Nearby

Air Quality

  Air Quality AQ Index Pollutant
Not available.

Snow Depth

Station Depth Elevation

Earthquake Activity

City Distance Mag. Time & Date
Minimum magnitude displayed is 2.5.

Coastal Water Temperatures

Place Temperature

Stations

Nearby Weather Stations

Station Location Temp. Windchill Dew Point Humidity Wind Precip. Elev Updated Type